Terminal Aerodrome Forecast
Issued by NWS Knoxville/Tri Cities, TN

Home | Current Version | Previous Version | Text Only | Print | Product List | Glossary On
Versions: 1 2 3 4 5 6 7 8 9 10 11 12 13 14 15 16 17 18 19 20 21 22 23 24 25 26 27 28 29 30 31 32 33 34 35 36 37 38
000
FTUS44 KMRX 192322
TAFCHA
TAF
KCHA 192322Z 2000/2024 VRB04KT P6SM VCSH SCT030 BKN040
      TEMPO 2000/2002 5SM -RA BR BKN028
     FM200200 VRB04KT 5SM -RA BR OVC022
     FM200600 18003KT 3SM -RA BR OVC016
     FM201400 19003KT P6SM VCSH SCT010 OVC024
     FM201800 19006KT P6SM SCT030 BKN050=

USA.gov is the U.S. government's official web portal to all federal, state and local government web resources and services.